Royal Clipper — 9HA2796 — position and weather

sailwx.info

Track history (hours):
 
Tides and Currents Weather Stations Pressure Air Temp Water Temp Dewpoint Dewpoint Depression Visibility Wind Speed Wind Dir Waves Ship Positions

Royal Clipper

Last reported at 2017-Nov-05 08:15 UTC. Time now 2017-Nov-17 19:23 UTC.
Position N 38°42' W 009°09'.
Warning: this ship's position is 12 days out of date.

Length 137 m; draft 5.8 m.

Type: Ship. MMSI: 215813000.

Date/timePositionNaut miles runAvg speedWind from/ knotsBaromVisibWave heightAir tempDewpointWater temp
2017-Nov-05 08:15N 38°42' W 009°09'  
2017-Nov-02 15:04N 38°42' W 009°09'0 0.0
2017-Nov-02 15:00N 38°42' W 009°09'0 0.0
2017-Nov-02 14:30N 38°42' W 009°09'0 0.2
2017-Nov-02 14:00N 38°42' W 009°09'0 0.2
2017-Nov-02 13:29N 38°42' W 009°09'1 2.6
2017-Nov-02 13:01N 38°42' W 009°08'1 1.4
2017-Nov-02 12:28N 38°43' W 009°07'0 0.0
2017-Nov-02 11:58N 38°43' W 009°07'0 0.0
2017-Nov-02 11:28N 38°43' W 009°07'0 0.0
2017-Nov-02 10:55N 38°43' W 009°07'0 0.0
2017-Nov-02 10:25N 38°43' W 009°07'0 0.0
2017-Nov-02 09:58N 38°43' W 009°07'0 0.0
2017-Nov-02 09:28N 38°43' W 009°07'0 0.0
2017-Nov-02 08:33N 38°43' W 009°07'0 0.0
2017-Nov-02 08:25N 38°43' W 009°07'0 0.0
2017-Nov-02 07:52N 38°43' W 009°07'0 0.0
2017-Nov-02 07:31N 38°43' W 009°07'0 0.0
2017-Nov-02 06:42N 38°43' W 009°07'0 0.0
2017-Nov-02 06:18N 38°43' W 009°07'0 0.0
2017-Nov-02 05:59N 38°43' W 009°07'2 4.9
2017-Nov-02 05:29N 38°42' W 009°10'3 6.9
2017-Nov-02 05:00N 38°41' W 009°14'4 8.1
2017-Nov-02 04:29N 38°40' W 009°19'4 9.3
2017-Nov-02 04:01N 38°37' W 009°23'4 7.9
2017-Nov-02 03:31N 38°33' W 009°24'4 7.4
2017-Nov-02 03:00N 38°29' W 009°23'4 7.6
2017-Nov-02 02:30N 38°25' W 009°23'4 8.4
2017-Nov-02 02:00N 38°21' W 009°23'4 8.9
2017-Nov-02 01:31N 38°16' W 009°23'4 8.6
2017-Nov-02 01:00N 38°12' W 009°23'4 8.5
2017-Nov-02 00:31N 38°08' W 009°22'4 8.4
2017-Nov-02 00:01N 38°04' W 009°22'2 3.9
2017-Nov-01 23:31N 38°02' W 009°22'2 4.3
2017-Nov-01 23:00N 37°60' W 009°22'2 3.3
2017-Nov-01 22:30N 37°58' W 009°22'2 3.4
2017-Nov-01 22:01N 37°56' W 009°22'2 3.4
2017-Nov-01 21:31N 37°55' W 009°22'4 8.6
2017-Nov-01 21:00N 37°50' W 009°22'4 9.0
2017-Nov-01 20:30N 37°46' W 009°21'5 9.1
2017-Nov-01 20:01N 37°41' W 009°21'4 8.8
2017-Nov-01 19:30N 37°37' W 009°21'  
2017-Oct-28 06:30N 32°18' W 009°15'2 3.1
2017-Oct-28 05:55N 32°19' W 009°17'410.0
2017-Oct-28 05:30N 32°22' W 009°20'1412.1
2017-Oct-28 04:22N 32°36' W 009°20'14810.7
2017-Oct-27 14:34N 34°29' W 007°25'210.3
2017-Oct-27 14:25N 34°30' W 007°23'  
Track history (hours):
 
Tides and Currents Weather Stations Pressure Air Temp Water Temp Dewpoint Dewpoint Depression Visibility Wind Speed Wind Dir Waves Ship Positions

Royal Clipper

Last reported at 2017-Nov-05 08:15 UTC. Time now 2017-Nov-17 19:23 UTC.
Position N 38°42' W 009°09'.
Warning: this ship's position is 12 days out of date.

Length 137 m; draft 5.8 m.

Type: Ship. MMSI: 215813000.

Date/timePositionNaut miles runAvg speedWind from/ knotsBaromVisibWave heightAir tempDewpointWater temp
2017-Nov-05 08:15N 38°42' W 009°09'  
2017-Nov-02 15:04N 38°42' W 009°09'0 0.0
2017-Nov-02 15:00N 38°42' W 009°09'0 0.0
2017-Nov-02 14:30N 38°42' W 009°09'0 0.2
2017-Nov-02 14:00N 38°42' W 009°09'0 0.2
2017-Nov-02 13:29N 38°42' W 009°09'1 2.6
2017-Nov-02 13:01N 38°42' W 009°08'1 1.4
2017-Nov-02 12:28N 38°43' W 009°07'0 0.0
2017-Nov-02 11:58N 38°43' W 009°07'0 0.0
2017-Nov-02 11:28N 38°43' W 009°07'0 0.0
2017-Nov-02 10:55N 38°43' W 009°07'0 0.0
2017-Nov-02 10:25N 38°43' W 009°07'0 0.0
2017-Nov-02 09:58N 38°43' W 009°07'0 0.0
2017-Nov-02 09:28N 38°43' W 009°07'0 0.0
2017-Nov-02 08:33N 38°43' W 009°07'0 0.0
2017-Nov-02 08:25N 38°43' W 009°07'0 0.0
2017-Nov-02 07:52N 38°43' W 009°07'0 0.0
2017-Nov-02 07:31N 38°43' W 009°07'0 0.0
2017-Nov-02 06:42N 38°43' W 009°07'0 0.0
2017-Nov-02 06:18N 38°43' W 009°07'0 0.0
2017-Nov-02 05:59N 38°43' W 009°07'2 4.9
2017-Nov-02 05:29N 38°42' W 009°10'3 6.9
2017-Nov-02 05:00N 38°41' W 009°14'4 8.1
2017-Nov-02 04:29N 38°40' W 009°19'4 9.3
2017-Nov-02 04:01N 38°37' W 009°23'4 7.9
2017-Nov-02 03:31N 38°33' W 009°24'4 7.4
2017-Nov-02 03:00N 38°29' W 009°23'4 7.6
2017-Nov-02 02:30N 38°25' W 009°23'4 8.4
2017-Nov-02 02:00N 38°21' W 009°23'4 8.9
2017-Nov-02 01:31N 38°16' W 009°23'4 8.6
2017-Nov-02 01:00N 38°12' W 009°23'4 8.5
2017-Nov-02 00:31N 38°08' W 009°22'4 8.4
2017-Nov-02 00:01N 38°04' W 009°22'2 3.9
2017-Nov-01 23:31N 38°02' W 009°22'2 4.3
2017-Nov-01 23:00N 37°60' W 009°22'2 3.3
2017-Nov-01 22:30N 37°58' W 009°22'2 3.4
2017-Nov-01 22:01N 37°56' W 009°22'2 3.4
2017-Nov-01 21:31N 37°55' W 009°22'4 8.6
2017-Nov-01 21:00N 37°50' W 009°22'4 9.0
2017-Nov-01 20:30N 37°46' W 009°21'5 9.1
2017-Nov-01 20:01N 37°41' W 009°21'4 8.8
2017-Nov-01 19:30N 37°37' W 009°21'  
2017-Oct-28 06:30N 32°18' W 009°15'2 3.1
2017-Oct-28 05:55N 32°19' W 009°17'410.0
2017-Oct-28 05:30N 32°22' W 009°20'1412.1
2017-Oct-28 04:22N 32°36' W 009°20'14810.7
2017-Oct-27 14:34N 34°29' W 007°25'210.3
2017-Oct-27 14:25N 34°30' W 007°23'  

Dump ship's entire track history